Datum Uhrzeit Temperatur Luft Windgeschw. Regen Regen (1h) Temp (1h) Luftdruck Windrichtung Taupunkt Sensor
2019-02-16 11:34:00 8.7 79.0 0.0 0.0 0.0 1.2 0.0 Kombisensor
2019-02-16 11:31:00 8.7 79.0 0.0 0.0 0.0 1.2 0.0 Kombisensor
2019-02-16 11:28:00 8.5 79.0 0.0 0.0 0.0 1.0 0.0 Kombisensor
2019-02-16 11:25:00 8.2 79.0 0.0 0.0 0.0 1.1 0.0 Kombisensor
2019-02-16 11:22:00 8.3 79.0 0.0 0.0 0.0 1.4 0.0 Kombisensor
2019-02-16 11:19:00 8.3 79.0 0.0 0.0 0.0 1.7 0.0 Kombisensor
2019-02-16 11:16:00 8.1 79.0 0.0 0.0 0.0 1.6 0.0 Kombisensor
2019-02-16 11:13:00 8.1 79.0 0.0 0.0 0.0 1.8 0.0 Kombisensor
2019-02-16 11:11:00 7.9 79.0 0.0 0.0 0.0 1.6 0.0 Kombisensor
2019-02-16 11:08:00 7.8 79.0 0.0 0.0 0.0 1.6 0.0 Kombisensor
2019-02-16 11:05:00 7.8 79.0 0.0 0.0 0.0 1.8 0.0 Kombisensor
2019-02-16 11:02:00 7.9 79.0 0.0 0.0 0.0 1.9 0.0 Kombisensor
2019-02-16 10:59:00 7.9 79.0 0.0 0.0 0.0 2.1 0.0 Kombisensor
2019-02-16 10:56:00 7.8 79.0 0.0 0.0 0.0 2.0 0.0 Kombisensor
2019-02-16 10:53:00 7.8 79.0 0.0 0.0 0.0 2.2 0.0 Kombisensor
2019-02-16 10:50:00 7.8 79.0 0.0 0.0 0.0 2.3 0.0 Kombisensor
2019-02-16 10:47:00 7.7 79.0 0.0 0.0 0.0 2.3 0.0 Kombisensor
2019-02-16 10:44:00 7.8 79.0 0.0 0.0 0.0 2.6 0.0 Kombisensor
2019-02-16 10:38:00 7.8 79.0 0.0 0.0 0.0 2.8 0.0 Kombisensor
2019-02-16 10:35:00 7.5 79.0 0.0 0.0 0.0 2.6 0.0 Kombisensor
2019-02-16 10:32:00 7.5 79.0 0.0 0.0 0.0 2.7 0.0 Kombisensor
2019-02-16 10:29:00 7.5 79.0 0.0 0.0 0.0 2.9 0.0 Kombisensor
2019-02-16 10:27:00 7.3 79.0 0.0 0.0 0.0 2.8 0.0 Kombisensor
2019-02-16 10:24:00 7.1 79.0 0.0 0.0 0.0 2.7 0.0 Kombisensor
2019-02-16 10:21:00 6.9 79.0 0.0 0.0 0.0 2.7 0.0 Kombisensor
2019-02-16 10:18:00 6.6 79.0 0.0 0.0 0.0 2.6 0.0 Kombisensor
2019-02-16 10:15:00 6.5 79.0 0.0 0.0 0.0 2.5 0.0 Kombisensor
2019-02-16 10:12:00 6.3 79.0 0.0 0.0 0.0 2.5 0.0 Kombisensor
2019-02-16 10:09:00 6.3 79.0 0.0 0.0 0.0 2.7 0.0 Kombisensor
2019-02-16 10:06:00 6.2 79.0 0.0 0.0 0.0 2.7 0.0 Kombisensor
2019-02-16 10:03:00 6.0 79.0 0.0 0.0 0.0 2.6 0.0 Kombisensor
2019-02-16 10:00:00 6.0 79.0 0.0 0.0 0.0 2.5 0.0 Kombisensor
2019-02-16 09:57:00 5.8 79.0 0.0 0.0 0.0 2.6 0.0 Kombisensor
2019-02-16 09:54:00 5.6 79.0 0.0 0.0 0.0 2.6 0.0 Kombisensor
2019-02-16 09:51:00 5.5 79.0 0.0 0.0 0.0 2.6 0.0 Kombisensor
2019-02-16 09:48:00 5.4 79.0 0.0 0.0 0.0 2.9 0.0 Kombisensor
2019-02-16 09:45:00 5.2 79.0 0.0 0.0 0.0 2.7 0.0 Kombisensor
2019-02-16 09:43:00 5.1 79.0 0.0 0.0 0.0 2.7 0.0 Kombisensor
2019-02-16 09:40:00 5.1 79.0 0.0 0.0 0.0 2.7 0.0 Kombisensor
2019-02-16 09:37:00 5.0 79.0 0.0 0.0 0.0 2.6 0.0 Kombisensor
2019-02-16 09:34:00 4.9 79.0 0.0 0.0 0.0 2.7 0.0 Kombisensor
2019-02-16 09:31:00 4.8 79.0 0.0 0.0 0.0 2.8 0.0 Kombisensor
2019-02-16 09:28:00 4.6 79.0 0.0 0.0 0.0 2.6 0.0 Kombisensor
2019-02-16 09:25:00 4.5 79.0 0.0 0.0 0.0 2.5 0.0 Kombisensor
2019-02-16 09:22:00 4.4 79.0 0.0 0.0 0.0 2.5 0.0 Kombisensor
2019-02-16 09:19:00 4.2 79.0 0.0 0.0 0.0 2.3 0.0 Kombisensor
2019-02-16 09:16:00 4.0 79.0 0.0 0.0 0.0 2.2 0.0 Kombisensor
2019-02-16 09:13:00 3.8 79.0 0.0 0.0 0.0 2.1 0.0 Kombisensor
2019-02-16 09:10:00 3.6 79.0 0.0 0.0 0.0 1.8 0.0 Kombisensor
2019-02-16 09:07:00 3.5 79.0 0.0 0.0 0.0 1.6 0.0 Kombisensor
2019-02-16 09:04:00 3.4 79.0 0.0 0.0 0.0 1.7 0.0 Kombisensor
2019-02-16 09:01:00 3.5 79.0 0.0 0.0 0.0 1.7 0.0 Kombisensor
2019-02-16 09:01:00 3.5 79.0 0.0 0.0 0.0 1.7 0.0 Kombisensor
2019-02-16 08:59:00 3.2 79.0 0.0 0.0 0.0 1.2 0.0 Kombisensor
2019-02-16 08:58:00 3.2 79.0 0.0 0.0 0.0 1.2 0.0 Kombisensor
2019-02-16 08:56:00 3.0 79.0 0.0 0.0 0.0 1.1 0.0 Kombisensor
2019-02-16 08:53:00 3.0 79.0 0.0 0.0 0.0 0.9 0.0 Kombisensor
2019-02-16 08:53:00 2.9 79.0 0.0 0.0 0.0 0.8 0.0 Kombisensor
2019-02-16 08:50:00 2.9 79.0 0.0 0.0 0.0 0.7 0.0 Kombisensor
2019-02-16 08:50:00 2.8 79.0 0.0 0.0 0.0 0.6 0.0 Kombisensor
2019-02-16 08:47:00 2.5 79.0 0.0 0.0 0.0 0.3 0.0 Kombisensor
2019-02-16 08:44:00 2.5 79.0 0.0 0.0 0.0 0.3 0.0 Kombisensor
2019-02-16 08:41:00 2.4 79.0 0.0 0.0 0.0 0.0 0.0 Kombisensor
2019-02-16 08:38:00 2.4 79.0 0.0 0.0 0.0 -0.1 0.0 Kombisensor
2019-02-16 08:35:00 2.4 79.0 0.0 0.0 0.0 0.1 0.0 Kombisensor
2019-02-16 08:32:00 2.2 79.0 0.0 0.0 0.0 0.1 0.0 Kombisensor
2019-02-16 08:29:00 2.0 79.0 0.0 0.0 0.0 -0.1 0.0 Kombisensor
2019-02-16 08:26:00 2.0 79.0 0.0 0.0 0.0 0.0 0.0 Kombisensor
2019-02-16 08:23:00 1.9 79.0 0.0 0.0 0.0 0.0 0.0 Kombisensor
2019-02-16 08:20:00 1.9 79.0 0.0 0.0 0.0 0.0 0.0 Kombisensor
2019-02-16 08:17:00 1.8 79.0 0.0 0.0 0.0 -0.1 0.0 Kombisensor
2019-02-16 08:15:00 1.8 79.0 0.0 0.0 0.0 0.0 0.0 Kombisensor
2019-02-16 08:12:00 1.7 79.0 0.0 0.0 0.0 0.0 0.0 Kombisensor
2019-02-16 08:09:00 1.8 79.0 0.0 0.0 0.0 0.1 0.0 Kombisensor
2019-02-16 08:06:00 1.9 79.0 0.0 0.0 0.0 0.2 0.0 Kombisensor
2019-02-16 08:03:00 1.7 79.0 0.0 0.0 0.0 0.0 0.0 Kombisensor
2019-02-16 08:00:00 1.8 79.0 0.0 0.0 0.0 0.1 0.0 Kombisensor
2019-02-16 07:57:00 2.0 79.0 0.0 0.0 0.0 0.4 0.0 Kombisensor
2019-02-16 07:54:00 1.9 79.0 0.0 0.0 0.0 0.3 0.0 Kombisensor
2019-02-16 07:51:00 2.1 79.0 0.0 0.0 0.0 0.5 0.0 Kombisensor
2019-02-16 07:48:00 2.2 79.0 0.0 0.0 0.0 0.4 0.0 Kombisensor
2019-02-16 07:45:00 2.2 79.0 0.0 0.0 0.0 0.6 0.0 Kombisensor
2019-02-16 07:42:00 2.4 79.0 0.0 0.0 0.0 0.7 0.0 Kombisensor
2019-02-16 07:39:00 2.5 79.0 0.0 0.0 0.0 0.8 0.0 Kombisensor
2019-02-16 07:36:00 2.3 79.0 0.0 0.0 0.0 0.5 0.0 Kombisensor
2019-02-16 07:33:00 2.1 79.0 0.0 0.0 0.0 0.3 0.0 Kombisensor
2019-02-16 07:31:00 2.1 79.0 0.0 0.0 0.0 0.2 0.0 Kombisensor
2019-02-16 07:28:00 2.1 79.0 0.0 0.0 0.0 0.2 0.0 Kombisensor
2019-02-16 07:25:00 2.0 79.0 0.0 0.0 0.0 0.1 0.0 Kombisensor
2019-02-16 07:22:00 1.9 79.0 0.0 0.0 0.0 0.1 0.0 Kombisensor
2019-02-16 07:22:00 1.9 79.0 0.0 0.0 0.0 0.1 0.0 Kombisensor
2019-02-16 07:19:00 1.9 79.0 0.0 0.0 0.0 0.0 0.0 Kombisensor
2019-02-16 07:16:00 1.9 79.0 0.0 0.0 0.0 0.0 0.0 Kombisensor
2019-02-16 07:13:00 1.8 79.0 0.0 0.0 0.0 -0.1 0.0 Kombisensor
2019-02-16 07:13:00 1.8 79.0 0.0 0.0 0.0 -0.1 0.0 Kombisensor
2019-02-16 07:10:00 1.7 79.0 0.0 0.0 0.0 -0.4 0.0 Kombisensor
2019-02-16 07:07:00 1.7 79.0 0.0 0.0 0.0 -0.4 0.0 Kombisensor
2019-02-16 07:04:00 1.7 79.0 0.0 0.0 0.0 -0.5 0.0 Kombisensor
2019-02-16 07:01:00 1.7 79.0 0.0 0.0 0.0 -0.4 0.0 Kombisensor
2019-02-16 06:58:00 1.6 79.0 0.0 0.0 0.0 -0.4 0.0 Kombisensor
2019-02-16 06:55:00 1.6 79.0 0.0 0.0 0.0 -0.7 0.0 Kombisensor
2019-02-16 06:52:00 1.6 79.0 0.0 0.0 0.0 -1.1 0.0 Kombisensor
2019-02-16 06:49:00 1.8 79.0 0.0 0.0 0.0 -0.8 0.0 Kombisensor
2019-02-16 06:47:00 1.7 79.0 0.0 0.0 0.0 -0.9 0.0 Kombisensor
2019-02-16 06:44:00 1.6 79.0 0.0 0.0 0.0 -0.7 0.0 Kombisensor
2019-02-16 06:41:00 1.7 79.0 0.0 0.0 0.0 -0.6 0.0 Kombisensor
2019-02-16 06:38:00 1.7 79.0 0.0 0.0 0.0 -0.6 0.0 Kombisensor
2019-02-16 06:35:00 1.8 79.0 0.0 0.0 0.0 -0.5 0.0 Kombisensor
2019-02-16 06:32:00 1.8 79.0 0.0 0.0 0.0 -0.5 0.0 Kombisensor
2019-02-16 06:29:00 1.9 79.0 0.0 0.0 0.0 -0.4 0.0 Kombisensor
2019-02-16 06:26:00 1.9 79.0 0.0 0.0 0.0 -0.5 0.0 Kombisensor
2019-02-16 06:23:00 1.9 79.0 0.0 0.0 0.0 -0.5 0.0 Kombisensor
2019-02-16 06:20:00 1.8 79.0 0.0 0.0 0.0 -0.7 0.0 Kombisensor
2019-02-16 06:17:00 1.9 79.0 0.0 0.0 0.0 -0.7 0.0 Kombisensor
2019-02-16 06:14:00 1.9 79.0 0.0 0.0 0.0 -0.7 0.0 Kombisensor
2019-02-16 06:11:00 2.1 79.0 0.0 0.0 0.0 -0.5 0.0 Kombisensor
2019-02-16 06:08:00 2.1 79.0 0.0 0.0 0.0 -0.7 0.0 Kombisensor
2019-02-16 06:05:00 2.2 79.0 0.0 0.0 0.0 -0.5 0.0 Kombisensor
2019-02-16 06:03:00 2.2 79.0 0.0 0.0 0.0 -0.5 0.0 Kombisensor
2019-02-16 06:00:00 2.1 79.0 0.0 0.0 0.0 -0.4 0.0 Kombisensor
2019-02-16 05:57:00 2.0 79.0 0.0 0.0 0.0 -0.6 0.0 Kombisensor
2019-02-16 05:54:00 2.3 79.0 0.0 0.0 0.0 -0.2 0.0 Kombisensor
2019-02-16 05:51:00 2.7 79.0 0.0 0.0 0.0 0.1 0.0 Kombisensor
2019-02-16 05:48:00 2.6 79.0 0.0 0.0 0.0 0.0 0.0 Kombisensor
2019-02-16 05:45:00 2.6 79.0 0.0 0.0 0.0 -0.1 0.0 Kombisensor
2019-02-16 05:42:00 2.3 79.0 0.0 0.0 0.0 -0.4 0.0 Kombisensor
2019-02-16 05:39:00 2.3 79.0 0.0 0.0 0.0 -0.3 0.0 Kombisensor
2019-02-16 05:33:00 2.3 79.0 0.0 0.0 0.0 -0.4 0.0 Kombisensor
2019-02-16 05:30:00 2.3 79.0 0.0 0.0 0.0 -0.5 0.0 Kombisensor
2019-02-16 05:27:00 2.4 79.0 0.0 0.0 0.0 -0.4 0.0 Kombisensor
2019-02-16 05:24:00 2.4 79.0 0.0 0.0 0.0 -0.6 0.0 Kombisensor
2019-02-16 05:21:00 2.5 79.0 0.0 0.0 0.0 -0.5 0.0 Kombisensor
2019-02-16 05:19:00 2.6 79.0 0.0 0.0 0.0 -0.3 0.0 Kombisensor
2019-02-16 05:16:00 2.6 79.0 0.0 0.0 0.0 -0.2 0.0 Kombisensor
2019-02-16 05:13:00 2.6 79.0 0.0 0.0 0.0 -0.2 0.0 Kombisensor
2019-02-16 05:10:00 2.6 79.0 0.0 0.0 0.0 -0.3 0.0 Kombisensor
2019-02-16 05:07:00 2.8 79.0 0.0 0.0 0.0 -0.1 0.0 Kombisensor
2019-02-16 05:04:00 2.7 79.0 0.0 0.0 0.0 -0.2 0.0 Kombisensor
2019-02-16 05:01:00 2.7 79.0 0.0 0.0 0.0 -0.2 0.0 Kombisensor
2019-02-16 04:58:00 2.5 79.0 0.0 0.0 0.0 -0.5 0.0 Kombisensor
2019-02-16 04:55:00 2.6 79.0 0.0 0.0 0.0 -0.6 0.0 Kombisensor
2019-02-16 04:52:00 2.5 79.0 0.0 0.0 0.0 -0.9 0.0 Kombisensor
2019-02-16 04:49:00 2.6 79.0 0.0 0.0 0.0 -1.0 0.0 Kombisensor
2019-02-16 04:46:00 2.7 79.0 0.0 0.0 0.0 -0.9 0.0 Kombisensor
2019-02-16 04:43:00 2.7 79.0 0.0 0.0 0.0 -1.0 0.0 Kombisensor
2019-02-16 04:40:00 2.6 79.0 0.0 0.0 0.0 -1.2 0.0 Kombisensor
2019-02-16 04:37:00 2.7 79.0 0.0 0.0 0.0 -1.1 0.0 Kombisensor
2019-02-16 04:35:00 2.6 79.0 0.0 0.0 0.0 -1.2 0.0 Kombisensor
2019-02-16 04:32:00 2.7 79.0 0.0 0.0 0.0 -1.0 0.0 Kombisensor
2019-02-16 04:29:00 2.8 79.0 0.0 0.0 0.0 -0.9 0.0 Kombisensor
2019-02-16 04:26:00 2.8 79.0 0.0 0.0 0.0 -1.1 0.0 Kombisensor
2019-02-16 04:23:00 3.0 79.0 0.0 0.0 0.0 -0.9 0.0 Kombisensor
2019-02-16 04:20:00 3.0 79.0 0.0 0.0 0.0 -0.9 0.0 Kombisensor
2019-02-16 04:17:00 2.9 79.0 0.0 0.0 0.0 -1.1 0.0 Kombisensor
2019-02-16 04:14:00 2.8 79.0 0.0 0.0 0.0 -1.2 0.0 Kombisensor
2019-02-16 04:11:00 2.8 79.0 0.0 0.0 0.0 -0.6 0.0 Kombisensor
2019-02-16 04:08:00 2.9 79.0 0.0 0.0 0.0 -0.6 0.0 Kombisensor
2019-02-16 04:05:00 2.9 79.0 0.0 0.0 0.0 -0.8 0.0 Kombisensor
2019-02-16 04:02:00 2.9 79.0 0.0 0.0 0.0 -0.2 0.0 Kombisensor
2019-02-16 03:59:00 3.0 79.0 0.0 0.0 0.0 -0.3 0.0 Kombisensor
2019-02-16 03:56:00 3.2 79.0 0.0 0.0 0.0 0.2 0.0 Kombisensor
2019-02-16 03:53:00 3.4 79.0 0.0 0.0 0.0 0.6 0.0 Kombisensor
2019-02-16 03:51:00 3.5 79.0 0.0 0.0 0.0 0.3 0.0 Kombisensor
2019-02-16 03:48:00 3.6 79.0 0.0 0.0 0.0 0.0 0.0 Kombisensor
2019-02-16 03:45:00 3.6 79.0 0.0 0.0 0.0 -0.1 0.0 Kombisensor
2019-02-16 03:42:00 3.7 79.0 0.0 0.0 0.0 -0.1 0.0 Kombisensor
2019-02-16 03:39:00 3.8 79.0 0.0 0.0 0.0 0.2 0.0 Kombisensor
2019-02-16 03:36:00 3.8 79.0 0.0 0.0 0.0 0.2 0.0 Kombisensor
2019-02-16 03:33:00 3.8 79.0 0.0 0.0 0.0 0.2 0.0 Kombisensor
2019-02-16 03:30:00 3.7 79.0 0.0 0.0 0.0 0.3 0.0 Kombisensor
2019-02-16 03:27:00 3.7 79.0 0.0 0.0 0.0 0.2 0.0 Kombisensor
2019-02-16 03:24:00 3.9 79.0 0.0 0.0 0.0 0.5 0.0 Kombisensor
2019-02-16 03:21:00 3.9 79.0 0.0 0.0 0.0 0.5 0.0 Kombisensor
2019-02-16 03:18:00 4.0 79.0 0.0 0.0 0.0 0.3 0.0 Kombisensor
2019-02-16 03:15:00 4.0 79.0 0.0 0.0 0.0 0.3 0.0 Kombisensor
2019-02-16 03:12:00 3.4 79.0 0.0 0.0 0.0 -0.4 0.0 Kombisensor
2019-02-16 03:09:00 3.5 79.0 0.0 0.0 0.0 -0.5 0.0 Kombisensor
2019-02-16 03:06:00 3.7 79.0 0.0 0.0 0.0 -0.3 0.0 Kombisensor
2019-02-16 03:04:00 3.6 79.0 0.0 0.0 0.0 -0.5 0.0 Kombisensor
2019-02-16 03:01:00 3.1 79.0 0.0 0.0 0.0 -0.6 0.0 Kombisensor
2019-02-16 02:58:00 3.3 79.0 0.0 0.0 0.0 -0.7 0.0 Kombisensor
2019-02-16 02:55:00 3.0 79.0 0.0 0.0 0.0 -0.9 0.0 Kombisensor
2019-02-16 02:52:00 2.8 79.0 0.0 0.0 0.0 -1.2 0.0 Kombisensor
2019-02-16 02:49:00 3.2 79.0 0.0 0.0 0.0 -0.8 0.0 Kombisensor
2019-02-16 02:46:00 3.6 79.0 0.0 0.0 0.0 -0.5 0.0 Kombisensor
2019-02-16 02:43:00 3.7 79.0 0.0 0.0 0.0 -0.3 0.0 Kombisensor
2019-02-16 02:40:00 3.8 79.0 0.0 0.0 0.0 -0.3 0.0 Kombisensor
2019-02-16 02:37:00 3.6 79.0 0.0 0.0 0.0 -0.5 0.0 Kombisensor
2019-02-16 02:34:00 3.6 79.0 0.0 0.0 0.0 -0.6 0.0 Kombisensor
2019-02-16 02:31:00 3.4 79.0 0.0 0.0 0.0 -0.8 0.0 Kombisensor
2019-02-16 02:28:00 3.5 79.0 0.0 0.0 0.0 -0.7 0.0 Kombisensor
2019-02-16 02:25:00 3.4 79.0 0.0 0.0 0.0 -0.6 0.0 Kombisensor
2019-02-16 02:22:00 3.4 79.0 0.0 0.0 0.0 -0.7 0.0 Kombisensor
2019-02-16 02:20:00 3.7 79.0 0.0 0.0 0.0 -0.7 0.0 Kombisensor
2019-02-16 02:17:00 3.7 79.0 0.0 0.0 0.0 -0.6 0.0 Kombisensor
2019-02-16 02:14:00 3.7 79.0 0.0 0.0 0.0 -0.2 0.0 Kombisensor
2019-02-16 02:11:00 3.8 79.0 0.0 0.0 0.0 0.3 0.0 Kombisensor
2019-02-16 02:08:00 4.0 79.0 0.0 0.0 0.0 0.6 0.0 Kombisensor
2019-02-16 02:05:00 4.0 79.0 0.0 0.0 0.0 0.6 0.0 Kombisensor
2019-02-16 02:02:00 4.1 79.0 0.0 0.0 0.0 0.5 0.0 Kombisensor
2019-02-16 01:59:00 3.7 79.0 0.0 0.0 0.0 0.1 0.0 Kombisensor
2019-02-16 01:56:00 4.0 79.0 0.0 0.0 0.0 0.7 0.0 Kombisensor
2019-02-16 01:53:00 3.9 79.0 0.0 0.0 0.0 1.1 0.0 Kombisensor
2019-02-16 01:50:00 4.0 79.0 0.0 0.0 0.0 0.5 0.0 Kombisensor
2019-02-16 01:47:00 4.1 79.0 0.0 0.0 0.0 0.1 0.0 Kombisensor
2019-02-16 01:44:00 4.0 79.0 0.0 0.0 0.0 0.1 0.0 Kombisensor
2019-02-16 01:44:00 4.0 79.0 0.0 0.0 0.0 0.1 0.0 Kombisensor
2019-02-16 01:41:00 4.1 79.0 0.0 0.0 0.0 0.9 0.0 Kombisensor
2019-02-16 01:38:00 4.1 79.0 0.0 0.0 0.0 0.6 0.0 Kombisensor
2019-02-16 01:36:00 4.1 79.0 0.0 0.0 0.0 0.4 0.0 Kombisensor
2019-02-16 01:33:00 4.2 79.0 0.0 0.0 0.0 0.1 0.0 Kombisensor
2019-02-16 01:33:00 4.2 79.0 0.0 0.0 0.0 0.1 0.0 Kombisensor
2019-02-16 01:30:00 4.2 79.0 0.0 0.0 0.0 -0.2 0.0 Kombisensor
2019-02-16 01:27:00 4.2 79.0 0.0 0.0 0.0 0.1 0.0 Kombisensor
2019-02-16 01:24:00 4.0 79.0 0.0 0.0 0.0 0.0 0.0 Kombisensor
2019-02-16 01:21:00 4.1 79.0 0.0 0.0 0.0 0.1 0.0 Kombisensor
2019-02-16 01:18:00 4.4 79.0 0.0 0.0 0.0 0.9 0.0 Kombisensor
2019-02-16 01:15:00 4.3 79.0 0.0 0.0 0.0 0.8 0.0 Kombisensor
2019-02-16 01:12:00 3.9 79.0 0.0 0.0 0.0 0.5 0.0 Kombisensor
2019-02-16 01:09:00 3.5 79.0 0.0 0.0 0.0 -0.3 0.0 Kombisensor
2019-02-16 01:06:00 3.4 79.0 0.0 0.0 0.0 -0.1 0.0 Kombisensor
2019-02-16 01:03:00 3.6 79.0 0.0 0.0 0.0 0.0 0.0 Kombisensor
2019-02-16 01:00:00 3.6 79.0 0.0 0.0 0.0 -0.7 0.0 Kombisensor
2019-02-16 00:57:00 3.3 79.0 0.0 0.0 0.0 0.5 0.0 Kombisensor
2019-02-16 00:54:00 2.8 79.0 0.0 0.0 0.0 -0.4 0.0 Kombisensor
2019-02-16 00:52:00 3.2 79.0 0.0 0.0 0.0 -0.3 0.0 Kombisensor
2019-02-16 00:49:00 3.5 79.0 0.0 0.0 0.0 -0.5 0.0 Kombisensor
2019-02-16 00:46:00 4.0 79.0 0.0 0.0 0.0 0.1 0.0 Kombisensor
2019-02-16 00:43:00 3.9 79.0 0.0 0.0 0.0 0.7 0.0 Kombisensor
2019-02-16 00:40:00 3.2 79.0 0.0 0.0 0.0 -0.3 0.0 Kombisensor
2019-02-16 00:37:00 3.5 79.0 0.0 0.0 0.0 -0.2 0.0 Kombisensor
2019-02-16 00:34:00 3.7 79.0 0.0 0.0 0.0 -0.4 0.0 Kombisensor
2019-02-16 00:31:00 4.1 79.0 0.0 0.0 0.0 -0.3 0.0 Kombisensor
2019-02-16 00:28:00 4.4 79.0 0.0 0.0 0.0 0.3 0.0 Kombisensor
2019-02-16 00:25:00 4.1 79.0 0.0 0.0 0.0 0.1 0.0 Kombisensor
2019-02-16 00:22:00 4.0 79.0 0.0 0.0 0.0 0.5 0.0 Kombisensor
2019-02-16 00:19:00 3.5 79.0 0.0 0.0 0.0 0.0 0.0 Kombisensor
2019-02-16 00:16:00 3.5 79.0 0.0 0.0 0.0 0.1 0.0 Kombisensor
2019-02-16 00:13:00 3.4 79.0 0.0 0.0 0.0 -0.4 0.0 Kombisensor
2019-02-16 00:10:00 3.8 79.0 0.0 0.0 0.0 -0.1 0.0 Kombisensor
2019-02-16 00:08:00 3.9 79.0 0.0 0.0 0.0 0.4 0.0 Kombisensor
2019-02-16 00:05:00 3.5 79.0 0.0 0.0 0.0 -0.1 0.0 Kombisensor
2019-02-16 00:02:00 3.6 79.0 0.0 0.0 0.0 -1.9 0.0 Kombisensor